createdAt,value
2017-03-31T00:00:04.342Z,0
2017-03-31T00:00:44.935Z,0
2017-03-31T00:01:32.321Z,0
2017-03-31T00:02:12.898Z,0
2017-03-31T00:02:53.486Z,0
2017-03-31T00:03:34.115Z,0
2017-03-31T00:04:14.653Z,0
2017-03-31T00:04:55.219Z,0
2017-03-31T00:05:35.798Z,0
2017-03-31T00:06:16.373Z,0
2017-03-31T00:06:56.954Z,0
2017-03-31T00:07:37.528Z,0
2017-03-31T00:08:18.105Z,0
2017-03-31T00:08:58.682Z,0
2017-03-31T00:09:39.250Z,0
2017-03-31T00:10:19.862Z,0
2017-03-31T00:11:00.452Z,0
2017-03-31T00:11:41.078Z,0
2017-03-31T00:12:21.736Z,0
2017-03-31T00:13:02.590Z,0
2017-03-31T00:13:43.167Z,0
2017-03-31T00:14:23.759Z,0
2017-03-31T00:15:04.378Z,0
2017-03-31T00:15:44.981Z,0
2017-03-31T00:16:25.598Z,0
2017-03-31T00:17:06.232Z,0
2017-03-31T00:17:46.794Z,0
2017-03-31T00:18:27.373Z,0
2017-03-31T00:19:07.948Z,0
2017-03-31T00:19:48.529Z,0
2017-03-31T00:20:29.157Z,0
2017-03-31T00:21:09.734Z,0
2017-03-31T00:21:50.335Z,0
2017-03-31T00:22:30.906Z,0
2017-03-31T00:23:11.496Z,0
2017-03-31T00:23:52.115Z,0
2017-03-31T00:24:32.681Z,0
2017-03-31T00:25:13.247Z,0
2017-03-31T00:25:53.857Z,0
2017-03-31T00:26:34.436Z,0
2017-03-31T00:27:15.026Z,0
2017-03-31T00:27:55.604Z,0
2017-03-31T00:28:36.217Z,0
2017-03-31T00:29:16.818Z,0
2017-03-31T00:29:57.400Z,0
2017-03-31T00:30:38.039Z,0
2017-03-31T00:31:18.614Z,0
2017-03-31T00:31:59.202Z,0
2017-03-31T00:32:39.772Z,0
2017-03-31T00:33:20.351Z,0
2017-03-31T00:34:01.018Z,0
2017-03-31T00:34:41.613Z,0
2017-03-31T00:35:22.225Z,0
2017-03-31T00:36:02.790Z,0
2017-03-31T00:36:43.369Z,0
2017-03-31T00:37:23.970Z,0
2017-03-31T00:38:04.549Z,0
2017-03-31T00:38:45.128Z,0
2017-03-31T00:39:25.690Z,0
2017-03-31T00:40:06.258Z,0
2017-03-31T00:40:46.839Z,0
2017-03-31T00:41:27.428Z,0
2017-03-31T00:42:07.994Z,0
2017-03-31T00:42:48.559Z,0
2017-03-31T00:43:29.130Z,0
2017-03-31T00:44:09.712Z,0
2017-03-31T00:44:50.315Z,0
2017-03-31T00:45:30.905Z,0
2017-03-31T00:46:11.477Z,0
2017-03-31T00:46:52.058Z,0
2017-03-31T00:47:32.660Z,0
2017-03-31T00:48:13.233Z,0
2017-03-31T00:48:53.799Z,0
2017-03-31T00:49:34.398Z,0
2017-03-31T00:50:14.963Z,0
2017-03-31T00:50:55.532Z,0
2017-03-31T00:51:36.118Z,0
2017-03-31T00:52:16.715Z,0
2017-03-31T00:52:57.301Z,0
2017-03-31T00:53:37.908Z,0
2017-03-31T00:54:18.500Z,0
2017-03-31T00:54:59.090Z,0
2017-03-31T00:55:39.660Z,0
2017-03-31T00:56:20.270Z,0
2017-03-31T00:57:00.852Z,0
2017-03-31T00:57:41.438Z,0
2017-03-31T00:58:22.012Z,0
2017-03-31T00:59:05.311Z,0
2017-03-31T00:59:45.887Z,0
2017-03-31T01:00:26.471Z,0
2017-03-31T01:01:07.041Z,0
2017-03-31T01:01:47.606Z,0
2017-03-31T01:02:28.175Z,0
2017-03-31T01:03:08.794Z,0
2017-03-31T01:03:49.380Z,0
2017-03-31T01:04:29.991Z,0
2017-03-31T01:05:10.564Z,0
2017-03-31T01:05:51.143Z,0
2017-03-31T01:06:31.746Z,0
2017-03-31T01:07:12.336Z,0
2017-03-31T01:07:52.906Z,0
2017-03-31T01:08:33.494Z,0
2017-03-31T01:09:14.062Z,0
2017-03-31T01:09:54.642Z,0
2017-03-31T01:10:35.230Z,0
2017-03-31T01:11:15.825Z,0
2017-03-31T01:11:56.459Z,0
2017-03-31T01:12:37.026Z,0
2017-03-31T01:13:17.603Z,0
2017-03-31T01:13:58.210Z,0
2017-03-31T01:14:38.825Z,0
2017-03-31T01:15:19.414Z,0
2017-03-31T01:16:00.013Z,0
2017-03-31T01:16:40.585Z,0
2017-03-31T01:17:21.155Z,0
2017-03-31T01:18:01.735Z,0
2017-03-31T01:18:42.322Z,0
2017-03-31T01:19:22.910Z,0
2017-03-31T01:20:03.551Z,0
2017-03-31T01:20:44.135Z,0
2017-03-31T01:21:24.736Z,0
2017-03-31T01:22:05.339Z,0
2017-03-31T01:22:45.907Z,0
2017-03-31T01:23:26.465Z,0
2017-03-31T01:24:07.041Z,0
2017-03-31T01:24:47.603Z,0
2017-03-31T01:25:28.176Z,0
2017-03-31T01:26:08.766Z,0
2017-03-31T01:26:49.337Z,0
2017-03-31T01:27:29.908Z,0
2017-03-31T01:28:10.478Z,0
2017-03-31T01:28:51.061Z,0
2017-03-31T01:29:31.644Z,0
2017-03-31T01:30:12.241Z,0
2017-03-31T01:30:52.831Z,0
2017-03-31T01:31:33.421Z,0
2017-03-31T01:32:14.002Z,0
2017-03-31T01:32:54.603Z,0
2017-03-31T01:33:35.224Z,0
2017-03-31T01:34:15.818Z,0
2017-03-31T01:34:56.394Z,0
2017-03-31T01:35:36.966Z,0
2017-03-31T01:36:17.592Z,0
2017-03-31T01:36:58.173Z,0
2017-03-31T01:37:38.761Z,0
2017-03-31T01:38:19.349Z,0
2017-03-31T01:38:59.916Z,0
2017-03-31T01:39:40.478Z,0
2017-03-31T01:40:21.044Z,0
2017-03-31T01:41:01.656Z,0
2017-03-31T01:41:42.261Z,0
2017-03-31T01:42:22.838Z,0
2017-03-31T01:43:03.414Z,0
2017-03-31T01:43:44.002Z,0
2017-03-31T01:44:24.582Z,0
2017-03-31T01:45:05.151Z,0
2017-03-31T01:45:45.784Z,0
2017-03-31T01:46:26.359Z,0
2017-03-31T01:47:06.946Z,0
2017-03-31T01:47:47.526Z,0
2017-03-31T01:48:28.130Z,0
2017-03-31T01:49:08.729Z,0
2017-03-31T01:49:49.325Z,0
2017-03-31T01:50:29.935Z,0
2017-03-31T01:51:10.537Z,0
2017-03-31T01:51:51.133Z,0
2017-03-31T01:52:31.743Z,0
2017-03-31T01:53:12.337Z,0
2017-03-31T01:53:52.944Z,0
2017-03-31T01:54:33.536Z,0
2017-03-31T01:55:14.154Z,0
2017-03-31T01:55:54.744Z,0
2017-03-31T01:56:35.325Z,0
2017-03-31T01:57:15.904Z,0
2017-03-31T01:57:56.492Z,0
2017-03-31T01:58:37.106Z,0
2017-03-31T01:59:17.694Z,0
2017-03-31T01:59:58.283Z,0
2017-03-31T02:00:38.860Z,0
2017-03-31T02:01:19.455Z,0
2017-03-31T02:02:00.063Z,0
2017-03-31T02:02:40.651Z,0
2017-03-31T02:03:21.241Z,0
2017-03-31T02:04:01.834Z,0
2017-03-31T02:04:42.431Z,0
2017-03-31T02:05:22.989Z,0
2017-03-31T02:06:03.565Z,0
2017-03-31T02:06:44.140Z,0
2017-03-31T02:07:24.727Z,0
2017-03-31T02:08:05.312Z,0
2017-03-31T02:08:45.877Z,0
2017-03-31T02:09:26.460Z,0
2017-03-31T02:10:07.035Z,0
2017-03-31T02:10:47.619Z,0
2017-03-31T02:11:28.239Z,0
2017-03-31T02:12:08.814Z,0
2017-03-31T02:12:49.416Z,0
2017-03-31T02:13:30.020Z,0
2017-03-31T02:14:10.594Z,0
2017-03-31T02:14:51.178Z,0
2017-03-31T02:15:31.775Z,0
2017-03-31T02:16:12.339Z,0
2017-03-31T02:16:52.918Z,0
2017-03-31T02:17:33.491Z,0
2017-03-31T02:18:14.077Z,0
2017-03-31T02:18:54.698Z,0
2017-03-31T02:19:35.253Z,0
2017-03-31T02:20:15.834Z,0
2017-03-31T02:20:56.424Z,0
2017-03-31T02:21:36.990Z,0
2017-03-31T02:22:17.619Z,0
2017-03-31T02:22:58.199Z,0
2017-03-31T02:23:38.790Z,0
2017-03-31T02:24:19.403Z,0
2017-03-31T02:24:59.990Z,0
2017-03-31T02:25:40.577Z,0
2017-03-31T02:26:21.194Z,0
2017-03-31T02:27:01.767Z,0
2017-03-31T02:27:42.346Z,0
2017-03-31T02:28:22.949Z,0
2017-03-31T02:29:03.519Z,0
2017-03-31T02:29:44.106Z,0
2017-03-31T02:30:24.729Z,0
2017-03-31T02:31:05.302Z,0
2017-03-31T02:31:45.915Z,0
2017-03-31T02:32:26.510Z,0
2017-03-31T02:33:07.107Z,0
2017-03-31T02:33:47.689Z,0
2017-03-31T02:34:28.337Z,0
2017-03-31T02:35:08.915Z,0
2017-03-31T02:35:49.507Z,0
2017-03-31T02:36:30.108Z,0
2017-03-31T02:37:10.721Z,0
2017-03-31T02:37:51.327Z,0
2017-03-31T02:38:31.927Z,0
2017-03-31T02:39:12.541Z,0
2017-03-31T02:39:53.126Z,0
2017-03-31T02:40:33.708Z,0
2017-03-31T02:41:14.284Z,0
2017-03-31T02:41:54.880Z,0
2017-03-31T02:42:35.450Z,0
2017-03-31T02:43:16.018Z,0
2017-03-31T02:43:56.600Z,0
2017-03-31T02:44:37.184Z,0
2017-03-31T02:45:17.771Z,0
2017-03-31T02:45:58.357Z,0
2017-03-31T02:46:38.954Z,0
2017-03-31T02:47:19.549Z,0
2017-03-31T02:48:00.135Z,0
2017-03-31T02:48:40.724Z,0
2017-03-31T02:49:21.294Z,0
2017-03-31T02:50:01.887Z,0
2017-03-31T02:50:42.460Z,0
2017-03-31T02:51:23.056Z,0
2017-03-31T02:52:03.649Z,0
2017-03-31T02:52:44.216Z,0
2017-03-31T02:53:24.788Z,0
2017-03-31T02:54:05.371Z,0
2017-03-31T02:54:45.958Z,0
2017-03-31T02:55:26.545Z,0
2017-03-31T02:56:07.150Z,0
2017-03-31T02:56:47.711Z,0
2017-03-31T02:57:28.356Z,0
2017-03-31T02:58:08.899Z,0
2017-03-31T02:58:49.466Z,0
2017-03-31T02:59:30.032Z,0
2017-03-31T03:00:10.612Z,0
2017-03-31T03:00:51.229Z,0
2017-03-31T03:01:31.793Z,0
2017-03-31T03:02:12.405Z,0
2017-03-31T03:02:53.010Z,0
2017-03-31T03:03:33.650Z,0
2017-03-31T03:04:14.271Z,0
2017-03-31T03:04:54.894Z,0
2017-03-31T03:05:35.463Z,0
2017-03-31T03:06:16.061Z,0
2017-03-31T03:06:56.652Z,0
2017-03-31T03:07:37.238Z,0
2017-03-31T03:08:17.842Z,0
2017-03-31T03:08:58.421Z,0
2017-03-31T03:09:39.031Z,0
2017-03-31T03:10:19.616Z,0
2017-03-31T03:11:00.188Z,0
2017-03-31T03:11:40.774Z,0
2017-03-31T03:12:21.389Z,0
2017-03-31T03:13:01.994Z,0
2017-03-31T03:13:42.578Z,0
2017-03-31T03:14:23.294Z,0
2017-03-31T03:15:03.888Z,0
2017-03-31T03:15:44.464Z,0
2017-03-31T03:16:25.077Z,0
2017-03-31T03:17:05.660Z,0
2017-03-31T03:17:46.277Z,0
2017-03-31T03:18:26.865Z,0
2017-03-31T03:19:07.435Z,0
2017-03-31T03:19:48.032Z,0
2017-03-31T03:20:28.632Z,0
2017-03-31T03:21:09.245Z,0
2017-03-31T03:21:49.804Z,0
2017-03-31T03:22:30.381Z,0
2017-03-31T03:23:10.963Z,0
2017-03-31T03:23:51.541Z,0
2017-03-31T03:24:32.104Z,0
2017-03-31T03:25:12.772Z,0
2017-03-31T03:25:53.322Z,0
2017-03-31T03:26:33.893Z,0
2017-03-31T03:27:14.517Z,0
2017-03-31T03:27:55.082Z,0
2017-03-31T03:28:35.666Z,0
2017-03-31T03:29:16.287Z,0
2017-03-31T03:29:56.844Z,0
2017-03-31T03:30:37.506Z,0
2017-03-31T03:31:18.075Z,0
2017-03-31T03:31:58.654Z,0
2017-03-31T03:32:39.220Z,0
2017-03-31T03:33:19.838Z,0
2017-03-31T03:34:00.424Z,0
2017-03-31T03:34:40.993Z,0
2017-03-31T03:35:21.565Z,0
2017-03-31T03:36:02.141Z,0
2017-03-31T03:36:42.726Z,0
2017-03-31T03:37:23.299Z,0
2017-03-31T03:38:03.872Z,0
2017-03-31T03:38:44.435Z,0
2017-03-31T03:39:25.036Z,0
2017-03-31T03:40:05.665Z,0
2017-03-31T03:40:46.257Z,0
2017-03-31T03:41:26.901Z,0
2017-03-31T03:42:07.511Z,0
2017-03-31T03:42:48.100Z,0
2017-03-31T03:43:28.679Z,0
2017-03-31T03:44:09.253Z,0
2017-03-31T03:44:49.859Z,0
2017-03-31T03:45:30.448Z,0
2017-03-31T03:46:11.061Z,0
2017-03-31T03:46:51.678Z,0
2017-03-31T03:47:32.262Z,0
2017-03-31T03:48:12.879Z,0
2017-03-31T03:48:53.618Z,0
2017-03-31T03:49:34.275Z,0
2017-03-31T03:50:14.843Z,0
2017-03-31T03:50:55.423Z,0
2017-03-31T03:51:36.013Z,0
2017-03-31T03:52:16.597Z,0
2017-03-31T03:52:57.187Z,0
2017-03-31T03:53:37.769Z,0
2017-03-31T03:54:18.349Z,0
2017-03-31T03:54:58.953Z,0
2017-03-31T03:55:39.553Z,0
2017-03-31T03:56:20.124Z,0
2017-03-31T03:57:00.719Z,0
2017-03-31T03:57:41.353Z,0
2017-03-31T03:58:21.951Z,0
2017-03-31T03:59:02.555Z,0
2017-03-31T03:59:43.124Z,0
2017-03-31T04:00:24.495Z,0
2017-03-31T04:01:12.391Z,0
2017-03-31T04:01:56.853Z,0
2017-03-31T04:02:37.433Z,0
2017-03-31T04:03:18.023Z,0
2017-03-31T04:03:58.596Z,0
2017-03-31T04:04:39.174Z,0
2017-03-31T04:05:19.749Z,0
2017-03-31T04:06:00.338Z,0
2017-03-31T04:06:40.904Z,0
2017-03-31T04:07:21.488Z,0
2017-03-31T04:08:02.084Z,0
2017-03-31T04:08:42.683Z,0
2017-03-31T04:09:23.306Z,0
2017-03-31T04:10:03.890Z,0
2017-03-31T04:10:44.459Z,0
2017-03-31T04:11:25.036Z,0
2017-03-31T04:12:05.612Z,0
2017-03-31T04:12:46.228Z,4
2017-03-31T04:13:26.793Z,4
2017-03-31T04:14:07.414Z,4
2017-03-31T04:14:47.995Z,4
2017-03-31T04:15:28.608Z,0
2017-03-31T04:16:09.188Z,4
2017-03-31T04:16:49.757Z,4
2017-03-31T04:17:30.334Z,4
2017-03-31T04:18:10.986Z,4
2017-03-31T04:18:51.582Z,4
2017-03-31T04:19:32.153Z,8
2017-03-31T04:20:12.750Z,4
2017-03-31T04:20:53.322Z,8
2017-03-31T04:21:33.910Z,8
2017-03-31T04:22:14.486Z,8
2017-03-31T04:22:55.061Z,12
2017-03-31T04:23:35.662Z,12
2017-03-31T04:24:16.242Z,16
2017-03-31T04:24:56.844Z,16
2017-03-31T04:25:37.480Z,16
2017-03-31T04:26:18.077Z,20
2017-03-31T04:26:58.653Z,20
2017-03-31T04:27:39.381Z,20
2017-03-31T04:28:20.051Z,24
2017-03-31T04:29:00.652Z,28
2017-03-31T04:29:41.250Z,28
2017-03-31T04:30:21.818Z,36
2017-03-31T04:31:02.458Z,40
2017-03-31T04:31:43.035Z,44
2017-03-31T04:32:23.664Z,48
2017-03-31T04:33:04.248Z,56
2017-03-31T04:33:44.810Z,60
2017-03-31T04:34:25.396Z,68
2017-03-31T04:35:06.038Z,72
2017-03-31T04:35:46.618Z,80
2017-03-31T04:36:27.239Z,84
2017-03-31T04:37:07.831Z,92
2017-03-31T04:37:48.417Z,100
2017-03-31T04:38:29.031Z,104
2017-03-31T04:39:09.627Z,116
2017-03-31T04:39:50.207Z,124
2017-03-31T04:40:30.792Z,128
2017-03-31T04:41:11.430Z,136
2017-03-31T04:41:51.985Z,144
2017-03-31T04:42:32.594Z,152
2017-03-31T04:43:13.191Z,164
2017-03-31T04:43:53.791Z,172
2017-03-31T04:44:34.385Z,184
2017-03-31T04:45:14.967Z,196
2017-03-31T04:45:55.541Z,212
2017-03-31T04:46:36.103Z,232
2017-03-31T04:47:16.708Z,244
2017-03-31T04:47:57.323Z,264
2017-03-31T04:48:37.877Z,288
2017-03-31T04:49:18.450Z,312
2017-03-31T04:49:59.020Z,332
2017-03-31T04:50:39.611Z,360
2017-03-31T04:51:20.198Z,380
2017-03-31T04:52:00.804Z,408
2017-03-31T04:52:41.386Z,436
2017-03-31T04:53:21.989Z,460
2017-03-31T04:54:02.563Z,484
2017-03-31T04:54:44.670Z,512
2017-03-31T04:57:27.349Z,620
2017-03-31T04:58:08.398Z,652
2017-03-31T04:58:51.714Z,688
2017-03-31T04:59:32.432Z,720
2017-03-31T05:00:13.058Z,752
2017-03-31T05:00:54.697Z,788
2017-03-31T05:01:36.078Z,824
2017-03-31T05:02:22.401Z,856
2017-03-31T05:03:17.238Z,904
2017-03-31T05:04:05.975Z,952
2017-03-31T05:04:48.542Z,988
2017-03-31T05:05:29.288Z,1020
2017-03-31T05:06:09.866Z,1060
2017-03-31T05:06:50.462Z,1092
2017-03-31T05:07:31.027Z,1128
2017-03-31T05:08:11.630Z,1164
2017-03-31T05:08:52.220Z,1200
2017-03-31T05:09:32.794Z,1240
2017-03-31T05:10:13.391Z,1288
2017-03-31T05:10:53.981Z,1328
2017-03-31T05:11:34.545Z,1368
2017-03-31T05:12:15.125Z,1412
2017-03-31T05:12:55.693Z,1460
2017-03-31T05:13:36.260Z,1516
2017-03-31T05:14:16.833Z,1572
2017-03-31T05:14:57.405Z,1636
2017-03-31T05:15:37.983Z,1704
2017-03-31T05:16:18.908Z,1772
2017-03-31T05:16:59.526Z,1832
2017-03-31T05:17:40.109Z,1892
2017-03-31T05:18:20.704Z,1944
2017-03-31T05:19:01.290Z,1996
2017-03-31T05:19:41.876Z,2044
2017-03-31T05:20:22.468Z,2096
2017-03-31T05:21:03.034Z,2152
2017-03-31T05:21:43.633Z,2204
2017-03-31T05:22:24.226Z,2260
2017-03-31T05:23:04.793Z,2316
2017-03-31T05:23:45.372Z,2380
2017-03-31T05:24:25.976Z,2436
2017-03-31T05:25:06.565Z,2492
2017-03-31T05:25:47.161Z,2552
2017-03-31T05:26:27.747Z,2608
2017-03-31T05:27:08.305Z,2656
2017-03-31T05:27:48.891Z,2704
2017-03-31T05:28:29.477Z,2744
2017-03-31T05:29:10.073Z,2796
2017-03-31T05:29:50.692Z,2844
2017-03-31T05:30:31.314Z,2892
2017-03-31T05:31:11.911Z,2940
2017-03-31T05:31:52.479Z,2992
2017-03-31T05:32:33.098Z,3052
2017-03-31T05:33:13.645Z,3108
2017-03-31T05:33:54.209Z,3172
2017-03-31T05:34:34.811Z,3236
2017-03-31T05:35:15.398Z,3288
2017-03-31T05:35:55.993Z,3328
2017-03-31T05:36:36.615Z,3352
2017-03-31T05:37:17.210Z,3376
2017-03-31T05:37:57.819Z,3400
2017-03-31T05:38:38.416Z,3428
2017-03-31T05:39:18.992Z,3464
2017-03-31T05:39:59.582Z,3496
2017-03-31T05:40:40.189Z,3536
2017-03-31T05:41:20.790Z,3572
2017-03-31T05:42:01.380Z,3616
2017-03-31T05:42:42.006Z,3668
2017-03-31T05:43:22.577Z,3716
2017-03-31T05:44:03.168Z,3760
2017-03-31T05:44:43.782Z,3800
2017-03-31T05:45:24.374Z,3828
2017-03-31T05:46:04.941Z,3860
2017-03-31T05:46:45.543Z,3892
2017-03-31T05:47:26.155Z,3928
2017-03-31T05:48:06.780Z,3964
2017-03-31T05:48:47.389Z,4012
2017-03-31T05:49:28.026Z,4064
2017-03-31T05:50:08.594Z,4116
2017-03-31T05:50:49.234Z,4168
2017-03-31T05:51:29.835Z,4220
2017-03-31T05:52:10.444Z,4264
2017-03-31T05:52:51.060Z,4316
2017-03-31T05:53:31.653Z,4372
2017-03-31T05:54:12.259Z,4428
2017-03-31T05:54:52.851Z,4484
2017-03-31T05:55:33.422Z,4536
2017-03-31T05:56:14.075Z,4584
2017-03-31T05:56:55.384Z,4640
2017-03-31T05:57:35.973Z,4692
2017-03-31T05:58:16.573Z,4736
2017-03-31T05:58:57.225Z,4780
2017-03-31T05:59:37.807Z,4824
2017-03-31T06:00:18.408Z,4880
2017-03-31T06:00:59.000Z,4940
2017-03-31T06:01:39.607Z,5000
2017-03-31T06:02:20.210Z,5072
2017-03-31T06:03:00.792Z,5152
2017-03-31T06:03:41.399Z,5216
2017-03-31T06:04:22.010Z,5296
2017-03-31T06:05:02.602Z,5364
2017-03-31T06:05:43.201Z,5436
2017-03-31T06:06:23.817Z,5500
2017-03-31T06:07:04.412Z,5556
2017-03-31T06:07:45.030Z,5596
2017-03-31T06:08:25.634Z,5624
2017-03-31T06:09:06.214Z,5656
2017-03-31T06:09:46.809Z,5672
2017-03-31T06:10:27.417Z,5664
2017-03-31T06:11:08.023Z,5660
2017-03-31T06:11:48.635Z,5652
2017-03-31T06:12:29.242Z,5628
2017-03-31T06:13:09.827Z,5604
2017-03-31T06:13:50.414Z,5560
2017-03-31T06:14:31.037Z,5544
2017-03-31T06:15:11.613Z,5520
2017-03-31T06:15:52.190Z,5476
2017-03-31T06:16:32.790Z,5432
2017-03-31T06:17:13.373Z,5396
2017-03-31T06:17:53.936Z,5352
2017-03-31T06:18:34.521Z,5320
2017-03-31T06:19:15.088Z,5292
2017-03-31T06:19:55.665Z,5288
2017-03-31T06:20:36.243Z,5276
2017-03-31T06:21:16.811Z,5256
2017-03-31T06:21:57.424Z,5288
2017-03-31T06:22:38.025Z,5320
2017-03-31T06:23:18.637Z,5340
2017-03-31T06:23:59.183Z,5372
2017-03-31T06:24:39.767Z,5408
2017-03-31T06:25:20.357Z,5416
2017-03-31T06:26:00.955Z,5432
2017-03-31T06:26:41.530Z,5460
2017-03-31T06:27:22.135Z,5500
2017-03-31T06:28:02.721Z,5556
2017-03-31T06:28:43.293Z,5592
2017-03-31T06:29:23.867Z,5624
2017-03-31T06:30:04.451Z,5648
2017-03-31T06:30:45.066Z,5712
2017-03-31T06:31:25.659Z,5792
2017-03-31T06:32:06.234Z,5868
2017-03-31T06:32:46.846Z,5916
2017-03-31T06:33:27.446Z,5968
2017-03-31T06:34:08.039Z,6032
2017-03-31T06:34:48.769Z,6104
2017-03-31T06:35:29.485Z,6208
2017-03-31T06:36:10.124Z,6296
2017-03-31T06:36:50.803Z,6408
2017-03-31T06:37:31.408Z,6472
2017-03-31T06:38:12.034Z,6644
2017-03-31T06:38:52.623Z,6808
2017-03-31T06:39:33.204Z,6996
2017-03-31T06:40:13.802Z,7272
2017-03-31T06:40:54.393Z,7588
2017-03-31T06:41:34.987Z,10028
2017-03-31T06:42:15.594Z,24352
2017-03-31T06:42:56.176Z,47712
2017-03-31T06:43:36.785Z,64000
2017-03-31T06:44:17.390Z,67168
2017-03-31T06:44:57.975Z,67904
2017-03-31T06:45:38.550Z,67680
2017-03-31T06:46:19.145Z,66880
2017-03-31T06:46:59.722Z,66016
2017-03-31T06:47:40.312Z,65024
2017-03-31T06:48:20.903Z,66336
2017-03-31T06:49:01.570Z,66208
2017-03-31T06:49:42.160Z,64576
2017-03-31T06:50:22.785Z,64864
2017-03-31T06:51:03.385Z,63648
2017-03-31T06:51:43.976Z,63328
2017-03-31T06:52:24.580Z,66208
2017-03-31T06:53:05.188Z,66816
2017-03-31T06:53:45.797Z,66144
2017-03-31T06:54:26.396Z,67744
2017-03-31T06:55:07.007Z,67648
2017-03-31T06:55:47.587Z,66464
2017-03-31T06:56:28.204Z,67360
2017-03-31T06:57:08.801Z,67104
2017-03-31T06:57:49.413Z,68096
2017-03-31T06:58:29.992Z,69568
2017-03-31T06:59:10.587Z,69376
2017-03-31T06:59:51.194Z,71136
2017-03-31T07:00:31.794Z,71328
2017-03-31T07:01:12.380Z,72960
2017-03-31T07:01:53.032Z,74240
2017-03-31T07:02:33.626Z,74272
2017-03-31T07:03:14.271Z,66560
2017-03-31T07:03:54.887Z,67808
2017-03-31T07:04:35.503Z,71456
2017-03-31T07:05:16.112Z,72448
2017-03-31T07:05:56.716Z,72672
2017-03-31T07:06:37.342Z,73248
2017-03-31T07:07:17.970Z,72448
2017-03-31T07:07:58.580Z,71392
2017-03-31T07:08:39.197Z,70528
2017-03-31T07:09:19.812Z,70880
2017-03-31T07:10:00.448Z,72256
2017-03-31T07:10:41.066Z,72640
2017-03-31T07:11:21.665Z,74624
2017-03-31T07:12:02.274Z,75424
2017-03-31T07:12:42.893Z,73568
2017-03-31T07:13:23.506Z,73600
2017-03-31T07:14:04.109Z,72544
2017-03-31T07:14:44.722Z,70304
2017-03-31T07:15:25.321Z,69376
2017-03-31T07:16:05.939Z,68416
2017-03-31T07:16:46.522Z,68384
2017-03-31T07:17:27.175Z,68480
2017-03-31T07:18:07.791Z,67360
2017-03-31T07:18:48.382Z,68192
2017-03-31T07:19:28.996Z,66208
2017-03-31T07:20:09.593Z,64832
2017-03-31T07:20:50.194Z,64480
2017-03-31T07:21:30.821Z,65024
2017-03-31T07:22:11.455Z,65216
2017-03-31T07:22:52.060Z,66656
2017-03-31T07:23:32.714Z,68000
2017-03-31T07:24:13.315Z,68416
2017-03-31T07:24:53.926Z,68064
2017-03-31T07:25:34.539Z,66272
2017-03-31T07:26:15.154Z,66784
2017-03-31T07:26:55.766Z,65408
2017-03-31T07:27:36.377Z,63392
2017-03-31T07:28:16.970Z,62496
2017-03-31T07:28:57.563Z,64096
2017-03-31T07:29:38.152Z,67072
2017-03-31T07:30:18.761Z,69216
2017-03-31T07:30:59.371Z,69472
2017-03-31T07:31:39.967Z,70880
2017-03-31T07:32:20.581Z,70688
2017-03-31T07:33:01.207Z,72704
2017-03-31T07:33:41.823Z,73536
2017-03-31T07:34:22.446Z,73728
2017-03-31T07:35:03.051Z,71744
2017-03-31T07:35:43.637Z,71168
2017-03-31T07:36:24.228Z,73280
2017-03-31T07:37:04.831Z,74336
2017-03-31T07:37:45.446Z,73280
2017-03-31T07:38:26.070Z,70624
2017-03-31T07:39:06.675Z,69088
2017-03-31T07:39:47.283Z,69984
2017-03-31T07:40:27.891Z,70208
2017-03-31T07:41:08.486Z,69056
2017-03-31T07:41:49.099Z,67936
2017-03-31T07:42:29.734Z,66784
2017-03-31T07:43:10.331Z,67200
2017-03-31T07:43:50.943Z,68704
2017-03-31T07:44:31.531Z,70912
2017-03-31T07:45:12.143Z,70784
2017-03-31T07:45:52.746Z,71968
2017-03-31T07:46:33.348Z,73760
2017-03-31T07:47:14.018Z,74272
2017-03-31T07:47:54.593Z,74784
2017-03-31T07:48:35.200Z,75136
2017-03-31T07:49:15.818Z,75136
2017-03-31T07:49:56.446Z,74208
2017-03-31T07:50:37.037Z,74912
2017-03-31T07:51:17.634Z,75520
2017-03-31T07:51:58.248Z,76224
2017-03-31T07:52:38.831Z,76288
2017-03-31T07:53:19.464Z,74688
2017-03-31T07:54:00.059Z,73376
2017-03-31T07:54:40.660Z,74496
2017-03-31T07:55:21.253Z,75264
2017-03-31T07:56:01.852Z,74304
2017-03-31T07:56:42.466Z,73408
2017-03-31T07:57:23.062Z,72224
2017-03-31T07:58:03.801Z,74048
2017-03-31T07:58:44.369Z,75488
2017-03-31T07:59:24.981Z,75168
2017-03-31T08:00:05.592Z,72416
2017-03-31T08:00:46.203Z,70144
2017-03-31T08:01:26.857Z,72096
2017-03-31T08:02:07.460Z,75648
2017-03-31T08:02:48.032Z,77024
2017-03-31T08:03:28.672Z,77152
2017-03-31T08:04:09.342Z,77152
2017-03-31T08:04:49.968Z,76000
2017-03-31T08:05:30.641Z,73888
2017-03-31T08:06:11.282Z,71840
2017-03-31T08:06:51.911Z,70304
2017-03-31T08:07:32.508Z,68448
2017-03-31T08:08:13.134Z,66272
2017-03-31T08:08:53.794Z,64128
2017-03-31T08:09:34.452Z,63584
2017-03-31T08:10:15.083Z,61920
2017-03-31T08:10:55.700Z,61152
2017-03-31T08:11:36.365Z,60896
2017-03-31T08:12:16.992Z,59936
2017-03-31T08:12:57.656Z,59232
2017-03-31T08:13:38.253Z,60160
2017-03-31T08:14:18.844Z,60896
2017-03-31T08:14:59.526Z,57760
2017-03-31T08:15:40.061Z,56640
2017-03-31T08:16:20.685Z,57152
2017-03-31T08:17:01.318Z,59616
2017-03-31T08:17:42.003Z,59104
2017-03-31T08:18:22.596Z,60160
2017-03-31T08:19:03.201Z,60704
2017-03-31T08:19:43.804Z,60864
2017-03-31T08:20:24.420Z,60384
2017-03-31T08:21:05.035Z,53056
2017-03-31T08:21:45.642Z,38976
2017-03-31T08:22:26.337Z,25696
2017-03-31T08:23:06.864Z,23040
2017-03-31T08:23:47.447Z,20864
2017-03-31T08:24:28.044Z,20736
2017-03-31T08:25:08.669Z,19872
2017-03-31T08:25:49.259Z,19776
2017-03-31T08:26:29.919Z,18720
2017-03-31T08:27:10.508Z,17344
2017-03-31T08:27:51.137Z,16736
2017-03-31T08:28:31.746Z,16192
2017-03-31T08:29:12.386Z,16032
2017-03-31T08:29:53.002Z,16384
2017-03-31T08:30:33.610Z,16448
2017-03-31T08:31:14.192Z,16384
2017-03-31T08:31:54.792Z,16096
2017-03-31T08:32:35.467Z,15604
2017-03-31T08:33:16.062Z,15616
2017-03-31T08:33:56.670Z,15368
2017-03-31T08:34:37.266Z,15372
2017-03-31T08:35:17.865Z,15188
2017-03-31T08:35:58.463Z,15004
2017-03-31T08:36:39.050Z,14444
2017-03-31T08:37:19.639Z,14424
2017-03-31T08:38:00.254Z,14152
2017-03-31T08:38:40.869Z,14260
2017-03-31T08:39:21.459Z,14260
2017-03-31T08:40:02.093Z,14152
2017-03-31T08:40:42.706Z,13920
2017-03-31T08:41:23.318Z,13536
2017-03-31T08:42:03.935Z,13636
2017-03-31T08:42:44.570Z,13392
2017-03-31T08:43:25.156Z,13000
2017-03-31T08:44:05.765Z,13108
2017-03-31T08:44:46.397Z,13312
2017-03-31T08:45:26.997Z,13064
2017-03-31T08:46:07.633Z,13092
2017-03-31T08:46:48.217Z,13056
2017-03-31T08:47:28.820Z,13080
2017-03-31T08:48:09.468Z,12988
2017-03-31T08:48:50.058Z,13008
2017-03-31T08:49:30.720Z,13060
2017-03-31T08:50:11.327Z,12844
2017-03-31T08:50:52.379Z,12820
2017-03-31T08:51:33.050Z,12760
2017-03-31T08:52:13.856Z,12544
2017-03-31T08:52:55.135Z,12388
2017-03-31T08:53:35.752Z,12104
2017-03-31T08:54:16.663Z,11700
2017-03-31T08:54:57.388Z,11464
2017-03-31T08:55:38.019Z,11304
2017-03-31T08:56:18.617Z,11148
2017-03-31T08:56:59.211Z,11128
2017-03-31T08:57:39.800Z,11028
2017-03-31T08:58:20.512Z,10908
2017-03-31T08:59:01.102Z,10752
2017-03-31T08:59:41.695Z,10680
2017-03-31T09:00:22.302Z,10684
2017-03-31T09:01:02.893Z,10696
2017-03-31T09:01:43.492Z,10616
2017-03-31T09:02:24.118Z,10480
2017-03-31T09:03:04.721Z,10216
2017-03-31T09:03:45.326Z,10160
2017-03-31T09:04:25.920Z,10132
2017-03-31T09:05:06.527Z,10160
2017-03-31T09:05:47.121Z,10180
2017-03-31T09:06:27.716Z,10332
2017-03-31T09:07:08.304Z,10276
2017-03-31T09:07:48.961Z,10476
2017-03-31T09:08:29.589Z,10316
2017-03-31T09:09:10.174Z,10380
2017-03-31T09:09:50.786Z,10456
2017-03-31T09:10:31.347Z,10360
2017-03-31T09:11:11.936Z,10072
2017-03-31T09:11:52.525Z,9812
2017-03-31T09:12:33.137Z,9520
2017-03-31T09:13:13.766Z,9428
2017-03-31T09:13:54.352Z,9332
2017-03-31T09:14:34.947Z,9204
2017-03-31T09:15:15.567Z,9064
2017-03-31T09:15:56.172Z,9052
2017-03-31T09:16:36.786Z,8964
2017-03-31T09:17:17.425Z,8960
2017-03-31T09:17:58.016Z,8940
2017-03-31T09:18:38.629Z,8956
2017-03-31T09:19:19.221Z,9112
2017-03-31T09:19:59.820Z,9200
2017-03-31T09:20:40.426Z,9208
2017-03-31T09:21:21.030Z,9168
2017-03-31T09:22:01.651Z,9268
2017-03-31T09:22:42.251Z,9392
2017-03-31T09:23:22.856Z,9564
2017-03-31T09:24:03.464Z,9652
2017-03-31T09:24:44.056Z,9572
2017-03-31T09:25:24.656Z,9468
2017-03-31T09:26:05.253Z,9492